sensor_id;sensor_type;location;lat;lon;timestamp;P1;durP1;ratioP1;P2;durP2;ratioP2
77544;SDS011;66672;50.328;7.610;2023-06-14T00:02:22;7.93;;;5.70;;
77544;SDS011;66672;50.328;7.610;2023-06-14T00:04:47;8.32;;;4.90;;
77544;SDS011;66672;50.328;7.610;2023-06-14T00:07:13;8.80;;;5.00;;
77544;SDS011;66672;50.328;7.610;2023-06-14T00:09:38;8.18;;;5.10;;
77544;SDS011;66672;50.328;7.610;2023-06-14T00:12:03;6.78;;;4.55;;
77544;SDS011;66672;50.328;7.610;2023-06-14T00:14:29;8.57;;;4.78;;
77544;SDS011;66672;50.328;7.610;2023-06-14T00:16:54;7.05;;;4.40;;
77544;SDS011;66672;50.328;7.610;2023-06-14T00:19:23;6.47;;;4.75;;
77544;SDS011;66672;50.328;7.610;2023-06-14T00:21:48;8.05;;;4.80;;
77544;SDS011;66672;50.328;7.610;2023-06-14T00:24:13;7.97;;;5.68;;
77544;SDS011;66672;50.328;7.610;2023-06-14T00:26:39;7.60;;;5.13;;
77544;SDS011;66672;50.328;7.610;2023-06-14T00:29:04;5.93;;;4.28;;
77544;SDS011;66672;50.328;7.610;2023-06-14T00:31:30;6.80;;;4.68;;
77544;SDS011;66672;50.328;7.610;2023-06-14T00:33:55;7.47;;;5.13;;
77544;SDS011;66672;50.328;7.610;2023-06-14T00:36:20;7.35;;;5.07;;
77544;SDS011;66672;50.328;7.610;2023-06-14T00:38:45;6.70;;;4.60;;
77544;SDS011;66672;50.328;7.610;2023-06-14T00:41:10;6.35;;;4.63;;
77544;SDS011;66672;50.328;7.610;2023-06-14T00:43:36;8.68;;;5.00;;
77544;SDS011;66672;50.328;7.610;2023-06-14T00:46:01;7.38;;;4.70;;
77544;SDS011;66672;50.328;7.610;2023-06-14T00:48:26;6.40;;;4.65;;
77544;SDS011;66672;50.328;7.610;2023-06-14T00:50:52;8.45;;;4.63;;
77544;SDS011;66672;50.328;7.610;2023-06-14T00:53:17;7.55;;;5.03;;
77544;SDS011;66672;50.328;7.610;2023-06-14T00:55:43;11.30;;;5.10;;
77544;SDS011;66672;50.328;7.610;2023-06-14T00:58:09;6.63;;;4.72;;
77544;SDS011;66672;50.328;7.610;2023-06-14T01:00:35;9.35;;;4.97;;
77544;SDS011;66672;50.328;7.610;2023-06-14T01:03:00;7.13;;;4.97;;
77544;SDS011;66672;50.328;7.610;2023-06-14T01:05:26;6.78;;;4.72;;
77544;SDS011;66672;50.328;7.610;2023-06-14T01:12:50;7.30;;;5.00;;
77544;SDS011;66672;50.328;7.610;2023-06-14T01:15:16;6.57;;;4.80;;
77544;SDS011;66672;50.328;7.610;2023-06-14T01:17:41;7.35;;;4.50;;
77544;SDS011;66672;50.328;7.610;2023-06-14T01:20:10;9.77;;;4.72;;
77544;SDS011;66672;50.328;7.610;2023-06-14T01:22:44;7.82;;;4.65;;
77544;SDS011;66672;50.328;7.610;2023-06-14T01:25:10;10.70;;;4.90;;
77544;SDS011;66672;50.328;7.610;2023-06-14T01:27:37;6.90;;;4.50;;
77544;SDS011;66672;50.328;7.610;2023-06-14T01:30:02;10.40;;;4.88;;
77544;SDS011;66672;50.328;7.610;2023-06-14T01:32:27;6.03;;;4.72;;
77544;SDS011;66672;50.328;7.610;2023-06-14T01:34:53;6.60;;;4.63;;
77544;SDS011;66672;50.328;7.610;2023-06-14T01:37:18;6.07;;;4.45;;
77544;SDS011;66672;50.328;7.610;2023-06-14T01:39:44;7.20;;;4.60;;
77544;SDS011;66672;50.328;7.610;2023-06-14T01:42:10;7.53;;;4.63;;
77544;SDS011;66672;50.328;7.610;2023-06-14T01:44:36;7.43;;;5.45;;
77544;SDS011;66672;50.328;7.610;2023-06-14T01:47:01;7.60;;;4.90;;
77544;SDS011;66672;50.328;7.610;2023-06-14T01:49:26;6.90;;;4.95;;
77544;SDS011;66672;50.328;7.610;2023-06-14T01:51:52;7.50;;;4.78;;
77544;SDS011;66672;50.328;7.610;2023-06-14T01:54:17;6.82;;;5.05;;
77544;SDS011;66672;50.328;7.610;2023-06-14T01:56:42;7.82;;;4.70;;
77544;SDS011;66672;50.328;7.610;2023-06-14T01:59:07;5.55;;;4.18;;
77544;SDS011;66672;50.328;7.610;2023-06-14T02:01:33;7.43;;;5.70;;
77544;SDS011;66672;50.328;7.610;2023-06-14T02:03:59;9.93;;;4.80;;
77544;SDS011;66672;50.328;7.610;2023-06-14T02:06:26;5.88;;;4.45;;
77544;SDS011;66672;50.328;7.610;2023-06-14T02:08:51;7.85;;;4.80;;
77544;SDS011;66672;50.328;7.610;2023-06-14T02:11:16;6.38;;;4.45;;
77544;SDS011;66672;50.328;7.610;2023-06-14T02:13:42;7.13;;;4.85;;
77544;SDS011;66672;50.328;7.610;2023-06-14T02:16:07;6.18;;;4.30;;
77544;SDS011;66672;50.328;7.610;2023-06-14T02:18:32;6.72;;;4.40;;
77544;SDS011;66672;50.328;7.610;2023-06-14T02:20:57;7.75;;;4.80;;
77544;SDS011;66672;50.328;7.610;2023-06-14T02:23:22;7.60;;;4.97;;
77544;SDS011;66672;50.328;7.610;2023-06-14T02:25:48;10.52;;;5.22;;
77544;SDS011;66672;50.328;7.610;2023-06-14T02:28:13;10.88;;;5.13;;
77544;SDS011;66672;50.328;7.610;2023-06-14T02:30:38;7.10;;;4.72;;
77544;SDS011;66672;50.328;7.610;2023-06-14T02:33:04;7.55;;;4.70;;
77544;SDS011;66672;50.328;7.610;2023-06-14T02:35:29;5.88;;;4.25;;
77544;SDS011;66672;50.328;7.610;2023-06-14T02:37:55;6.90;;;4.60;;
77544;SDS011;66672;50.328;7.610;2023-06-14T02:40:20;9.82;;;4.70;;
77544;SDS011;66672;50.328;7.610;2023-06-14T02:42:45;7.13;;;4.55;;
77544;SDS011;66672;50.328;7.610;2023-06-14T02:45:11;7.00;;;4.03;;
77544;SDS011;66672;50.328;7.610;2023-06-14T02:47:36;8.05;;;4.90;;
77544;SDS011;66672;50.328;7.610;2023-06-14T02:50:01;7.40;;;4.75;;
77544;SDS011;66672;50.328;7.610;2023-06-14T02:52:27;7.85;;;4.93;;
77544;SDS011;66672;50.328;7.610;2023-06-14T02:54:52;8.32;;;4.93;;
77544;SDS011;66672;50.328;7.610;2023-06-14T02:57:19;7.97;;;4.20;;
77544;SDS011;66672;50.328;7.610;2023-06-14T02:59:44;6.93;;;4.35;;
77544;SDS011;66672;50.328;7.610;2023-06-14T03:02:09;8.77;;;4.72;;
77544;SDS011;66672;50.328;7.610;2023-06-14T03:04:34;9.13;;;4.25;;
77544;SDS011;66672;50.328;7.610;2023-06-14T03:07:02;6.38;;;4.30;;
77544;SDS011;66672;50.328;7.610;2023-06-14T03:09:34;6.22;;;4.25;;
77544;SDS011;66672;50.328;7.610;2023-06-14T03:11:59;6.30;;;4.25;;
77544;SDS011;66672;50.328;7.610;2023-06-14T03:14:24;7.03;;;4.15;;
77544;SDS011;66672;50.328;7.610;2023-06-14T03:16:49;10.10;;;4.30;;
77544;SDS011;66672;50.328;7.610;2023-06-14T03:19:15;7.50;;;4.15;;
77544;SDS011;66672;50.328;7.610;2023-06-14T03:21:40;9.98;;;3.97;;
77544;SDS011;66672;50.328;7.610;2023-06-14T03:24:09;7.18;;;4.03;;
77544;SDS011;66672;50.328;7.610;2023-06-14T03:26:34;9.73;;;5.03;;
77544;SDS011;66672;50.328;7.610;2023-06-14T03:29:01;7.45;;;4.10;;
77544;SDS011;66672;50.328;7.610;2023-06-14T03:31:28;7.80;;;4.63;;
77544;SDS011;66672;50.328;7.610;2023-06-14T03:33:57;7.72;;;4.10;;
77544;SDS011;66672;50.328;7.610;2023-06-14T03:36:22;6.57;;;4.20;;
77544;SDS011;66672;50.328;7.610;2023-06-14T03:38:47;6.20;;;4.20;;
77544;SDS011;66672;50.328;7.610;2023-06-14T03:41:13;7.03;;;3.95;;
77544;SDS011;66672;50.328;7.610;2023-06-14T03:43:38;6.82;;;3.60;;
77544;SDS011;66672;50.328;7.610;2023-06-14T03:46:03;6.53;;;3.90;;
77544;SDS011;66672;50.328;7.610;2023-06-14T03:48:28;6.72;;;4.03;;
77544;SDS011;66672;50.328;7.610;2023-06-14T03:50:53;10.10;;;4.03;;
77544;SDS011;66672;50.328;7.610;2023-06-14T03:53:19;8.55;;;4.07;;
77544;SDS011;66672;50.328;7.610;2023-06-14T03:55:48;10.00;;;4.38;;
77544;SDS011;66672;50.328;7.610;2023-06-14T03:58:13;8.18;;;5.22;;
77544;SDS011;66672;50.328;7.610;2023-06-14T04:00:39;8.20;;;4.20;;
77544;SDS011;66672;50.328;7.610;2023-06-14T04:03:05;7.40;;;4.57;;
77544;SDS011;66672;50.328;7.610;2023-06-14T04:05:30;6.93;;;4.25;;
77544;SDS011;66672;50.328;7.610;2023-06-14T04:07:56;6.57;;;4.03;;
77544;SDS011;66672;50.328;7.610;2023-06-14T04:10:22;8.18;;;4.32;;
77544;SDS011;66672;50.328;7.610;2023-06-14T04:12:47;7.40;;;4.32;;
77544;SDS011;66672;50.328;7.610;2023-06-14T04:15:12;7.80;;;4.38;;
77544;SDS011;66672;50.328;7.610;2023-06-14T04:17:38;6.10;;;3.97;;
77544;SDS011;66672;50.328;7.610;2023-06-14T04:20:04;5.90;;;4.13;;
77544;SDS011;66672;50.328;7.610;2023-06-14T04:22:31;8.20;;;4.70;;
77544;SDS011;66672;50.328;7.610;2023-06-14T04:24:56;8.55;;;5.13;;
77544;SDS011;66672;50.328;7.610;2023-06-14T04:27:22;7.93;;;4.13;;
77544;SDS011;66672;50.328;7.610;2023-06-14T04:29:53;7.85;;;4.47;;
77544;SDS011;66672;50.328;7.610;2023-06-14T04:32:25;7.65;;;3.70;;
77544;SDS011;66672;50.328;7.610;2023-06-14T04:34:54;7.93;;;4.78;;
77544;SDS011;66672;50.328;7.610;2023-06-14T04:37:23;6.90;;;4.38;;
77544;SDS011;66672;50.328;7.610;2023-06-14T04:39:48;7.53;;;4.05;;
77544;SDS011;66672;50.328;7.610;2023-06-14T04:42:14;7.75;;;4.30;;
77544;SDS011;66672;50.328;7.610;2023-06-14T04:44:45;8.45;;;4.63;;
77544;SDS011;66672;50.328;7.610;2023-06-14T04:47:12;8.88;;;4.72;;
77544;SDS011;66672;50.328;7.610;2023-06-14T04:49:38;8.45;;;4.80;;
77544;SDS011;66672;50.328;7.610;2023-06-14T04:52:03;8.77;;;5.78;;
77544;SDS011;66672;50.328;7.610;2023-06-14T04:54:28;7.40;;;5.30;;
77544;SDS011;66672;50.328;7.610;2023-06-14T04:56:56;7.22;;;4.05;;
77544;SDS011;66672;50.328;7.610;2023-06-14T04:59:21;7.50;;;4.60;;
77544;SDS011;66672;50.328;7.610;2023-06-14T05:01:50;7.25;;;4.35;;
77544;SDS011;66672;50.328;7.610;2023-06-14T05:04:15;7.20;;;4.50;;
77544;SDS011;66672;50.328;7.610;2023-06-14T05:06:42;9.10;;;4.22;;
77544;SDS011;66672;50.328;7.610;2023-06-14T05:09:09;7.35;;;4.38;;
77544;SDS011;66672;50.328;7.610;2023-06-14T05:11:34;10.13;;;4.07;;
77544;SDS011;66672;50.328;7.610;2023-06-14T05:14:00;11.05;;;4.40;;
77544;SDS011;66672;50.328;7.610;2023-06-14T05:16:25;6.70;;;5.00;;
77544;SDS011;66672;50.328;7.610;2023-06-14T05:18:52;6.22;;;4.07;;
77544;SDS011;66672;50.328;7.610;2023-06-14T05:21:18;10.27;;;5.20;;
77544;SDS011;66672;50.328;7.610;2023-06-14T05:23:44;7.22;;;4.45;;
77544;SDS011;66672;50.328;7.610;2023-06-14T05:26:09;7.55;;;4.50;;
77544;SDS011;66672;50.328;7.610;2023-06-14T05:28:35;7.70;;;4.00;;
77544;SDS011;66672;50.328;7.610;2023-06-14T05:31:00;9.98;;;5.00;;
77544;SDS011;66672;50.328;7.610;2023-06-14T05:33:25;7.38;;;4.82;;
77544;SDS011;66672;50.328;7.610;2023-06-14T05:35:51;7.30;;;4.40;;
77544;SDS011;66672;50.328;7.610;2023-06-14T05:38:16;9.10;;;4.53;;
77544;SDS011;66672;50.328;7.610;2023-06-14T05:40:41;8.25;;;4.60;;
77544;SDS011;66672;50.328;7.610;2023-06-14T05:43:06;6.22;;;4.13;;
77544;SDS011;66672;50.328;7.610;2023-06-14T05:45:31;7.18;;;4.20;;
77544;SDS011;66672;50.328;7.610;2023-06-14T05:47:57;7.45;;;4.55;;
77544;SDS011;66672;50.328;7.610;2023-06-14T05:50:22;8.38;;;4.40;;
77544;SDS011;66672;50.328;7.610;2023-06-14T05:52:47;9.23;;;4.60;;
77544;SDS011;66672;50.328;7.610;2023-06-14T05:55:12;8.63;;;4.38;;
77544;SDS011;66672;50.328;7.610;2023-06-14T05:57:37;8.80;;;4.05;;
77544;SDS011;66672;50.328;7.610;2023-06-14T06:00:03;9.90;;;4.78;;
77544;SDS011;66672;50.328;7.610;2023-06-14T06:02:39;6.75;;;4.28;;
77544;SDS011;66672;50.328;7.610;2023-06-14T06:05:04;7.05;;;4.32;;
77544;SDS011;66672;50.328;7.610;2023-06-14T06:07:31;6.93;;;4.22;;
77544;SDS011;66672;50.328;7.610;2023-06-14T06:09:56;5.90;;;3.83;;
77544;SDS011;66672;50.328;7.610;2023-06-14T06:12:21;8.80;;;4.45;;
77544;SDS011;66672;50.328;7.610;2023-06-14T06:14:46;8.45;;;4.15;;
77544;SDS011;66672;50.328;7.610;2023-06-14T06:17:11;6.45;;;4.43;;
77544;SDS011;66672;50.328;7.610;2023-06-14T06:19:36;7.53;;;3.53;;
77544;SDS011;66672;50.328;7.610;2023-06-14T06:22:02;7.55;;;4.57;;
77544;SDS011;66672;50.328;7.610;2023-06-14T06:24:27;7.07;;;4.50;;
77544;SDS011;66672;50.328;7.610;2023-06-14T06:26:52;9.98;;;4.47;;
77544;SDS011;66672;50.328;7.610;2023-06-14T06:29:17;7.68;;;3.45;;
77544;SDS011;66672;50.328;7.610;2023-06-14T06:31:43;5.82;;;3.78;;
77544;SDS011;66672;50.328;7.610;2023-06-14T06:34:08;6.95;;;3.72;;
77544;SDS011;66672;50.328;7.610;2023-06-14T06:36:33;7.20;;;3.80;;
77544;SDS011;66672;50.328;7.610;2023-06-14T06:38:58;6.78;;;4.07;;
77544;SDS011;66672;50.328;7.610;2023-06-14T06:41:23;7.03;;;3.70;;
77544;SDS011;66672;50.328;7.610;2023-06-14T06:43:48;4.88;;;3.50;;
77544;SDS011;66672;50.328;7.610;2023-06-14T06:46:14;9.05;;;3.65;;
77544;SDS011;66672;50.328;7.610;2023-06-14T06:48:39;8.00;;;4.18;;
77544;SDS011;66672;50.328;7.610;2023-06-14T06:51:04;7.65;;;3.70;;
77544;SDS011;66672;50.328;7.610;2023-06-14T06:53:30;6.85;;;3.58;;
77544;SDS011;66672;50.328;7.610;2023-06-14T06:55:55;4.88;;;3.38;;
77544;SDS011;66672;50.328;7.610;2023-06-14T06:58:21;6.30;;;3.38;;
77544;SDS011;66672;50.328;7.610;2023-06-14T07:00:47;6.90;;;3.80;;
77544;SDS011;66672;50.328;7.610;2023-06-14T07:03:12;6.47;;;3.60;;
77544;SDS011;66672;50.328;7.610;2023-06-14T07:05:37;5.80;;;3.42;;
77544;SDS011;66672;50.328;7.610;2023-06-14T07:08:02;6.57;;;3.60;;
77544;SDS011;66672;50.328;7.610;2023-06-14T07:10:28;4.88;;;3.10;;
77544;SDS011;66672;50.328;7.610;2023-06-14T07:12:53;5.68;;;3.17;;
77544;SDS011;66672;50.328;7.610;2023-06-14T07:15:18;5.53;;;3.35;;
77544;SDS011;66672;50.328;7.610;2023-06-14T07:17:44;6.03;;;3.08;;
77544;SDS011;66672;50.328;7.610;2023-06-14T07:20:09;6.18;;;3.10;;
77544;SDS011;66672;50.328;7.610;2023-06-14T07:22:39;8.00;;;3.58;;
77544;SDS011;66672;50.328;7.610;2023-06-14T07:25:05;6.65;;;3.25;;
77544;SDS011;66672;50.328;7.610;2023-06-14T07:27:31;5.68;;;3.38;;
77544;SDS011;66672;50.328;7.610;2023-06-14T07:29:56;6.32;;;3.58;;
77544;SDS011;66672;50.328;7.610;2023-06-14T07:32:21;5.43;;;3.25;;
77544;SDS011;66672;50.328;7.610;2023-06-14T07:34:46;6.40;;;3.20;;
77544;SDS011;66672;50.328;7.610;2023-06-14T07:37:12;5.88;;;3.22;;
77544;SDS011;66672;50.328;7.610;2023-06-14T07:39:37;5.57;;;2.95;;
77544;SDS011;66672;50.328;7.610;2023-06-14T07:42:02;5.97;;;2.83;;
77544;SDS011;66672;50.328;7.610;2023-06-14T07:44:29;7.25;;;3.40;;
77544;SDS011;66672;50.328;7.610;2023-06-14T07:46:55;4.90;;;3.15;;
77544;SDS011;66672;50.328;7.610;2023-06-14T07:49:23;5.45;;;2.83;;
77544;SDS011;66672;50.328;7.610;2023-06-14T07:51:48;6.35;;;3.08;;
77544;SDS011;66672;50.328;7.610;2023-06-14T07:54:14;5.15;;;3.00;;
77544;SDS011;66672;50.328;7.610;2023-06-14T07:56:40;6.22;;;2.83;;
77544;SDS011;66672;50.328;7.610;2023-06-14T07:59:05;4.95;;;2.95;;
77544;SDS011;66672;50.328;7.610;2023-06-14T08:01:32;6.13;;;3.20;;
77544;SDS011;66672;50.328;7.610;2023-06-14T08:03:58;7.75;;;2.80;;
77544;SDS011;66672;50.328;7.610;2023-06-14T08:06:23;6.93;;;2.67;;
77544;SDS011;66672;50.328;7.610;2023-06-14T08:08:48;4.35;;;2.30;;
77544;SDS011;66672;50.328;7.610;2023-06-14T08:11:13;5.53;;;2.40;;
77544;SDS011;66672;50.328;7.610;2023-06-14T08:13:38;3.47;;;2.13;;
77544;SDS011;66672;50.328;7.610;2023-06-14T08:16:04;4.30;;;2.53;;
77544;SDS011;66672;50.328;7.610;2023-06-14T08:18:30;4.78;;;2.30;;
77544;SDS011;66672;50.328;7.610;2023-06-14T08:20:55;3.85;;;2.22;;
77544;SDS011;66672;50.328;7.610;2023-06-14T08:23:22;3.97;;;2.05;;
77544;SDS011;66672;50.328;7.610;2023-06-14T08:25:47;4.53;;;2.38;;
77544;SDS011;66672;50.328;7.610;2023-06-14T08:28:13;5.50;;;2.38;;
77544;SDS011;66672;50.328;7.610;2023-06-14T08:30:38;5.05;;;2.08;;
77544;SDS011;66672;50.328;7.610;2023-06-14T08:33:03;4.90;;;2.28;;
77544;SDS011;66672;50.328;7.610;2023-06-14T08:35:28;4.65;;;2.25;;
77544;SDS011;66672;50.328;7.610;2023-06-14T08:37:53;4.38;;;2.15;;
77544;SDS011;66672;50.328;7.610;2023-06-14T08:40:22;5.53;;;2.40;;
77544;SDS011;66672;50.328;7.610;2023-06-14T08:42:51;3.80;;;2.20;;
77544;SDS011;66672;50.328;7.610;2023-06-14T08:45:17;4.75;;;2.42;;
77544;SDS011;66672;50.328;7.610;2023-06-14T08:47:43;5.07;;;2.25;;
77544;SDS011;66672;50.328;7.610;2023-06-14T08:50:08;6.50;;;2.65;;
77544;SDS011;66672;50.328;7.610;2023-06-14T08:52:35;3.63;;;2.10;;
77544;SDS011;66672;50.328;7.610;2023-06-14T08:55:05;4.53;;;2.03;;
77544;SDS011;66672;50.328;7.610;2023-06-14T08:57:30;4.57;;;2.20;;
77544;SDS011;66672;50.328;7.610;2023-06-14T08:59:56;3.15;;;1.92;;
77544;SDS011;66672;50.328;7.610;2023-06-14T09:02:21;5.05;;;2.50;;
77544;SDS011;66672;50.328;7.610;2023-06-14T09:04:47;5.70;;;2.25;;
77544;SDS011;66672;50.328;7.610;2023-06-14T09:07:14;3.90;;;2.08;;
77544;SDS011;66672;50.328;7.610;2023-06-14T09:09:40;3.25;;;2.17;;
77544;SDS011;66672;50.328;7.610;2023-06-14T09:12:07;3.88;;;2.20;;
77544;SDS011;66672;50.328;7.610;2023-06-14T09:14:35;4.38;;;2.28;;
77544;SDS011;66672;50.328;7.610;2023-06-14T09:17:03;4.10;;;2.20;;
77544;SDS011;66672;50.328;7.610;2023-06-14T09:19:28;4.50;;;2.50;;
77544;SDS011;66672;50.328;7.610;2023-06-14T09:21:53;6.13;;;2.42;;
77544;SDS011;66672;50.328;7.610;2023-06-14T09:24:20;4.78;;;2.33;;
77544;SDS011;66672;50.328;7.610;2023-06-14T09:26:50;6.68;;;2.55;;
77544;SDS011;66672;50.328;7.610;2023-06-14T09:29:16;5.60;;;2.40;;
77544;SDS011;66672;50.328;7.610;2023-06-14T09:31:41;4.53;;;2.42;;
77544;SDS011;66672;50.328;7.610;2023-06-14T09:34:06;5.40;;;2.50;;
77544;SDS011;66672;50.328;7.610;2023-06-14T09:36:32;7.63;;;2.70;;
77544;SDS011;66672;50.328;7.610;2023-06-14T09:38:57;4.30;;;2.38;;
77544;SDS011;66672;50.328;7.610;2023-06-14T09:41:36;3.58;;;2.20;;
77544;SDS011;66672;50.328;7.610;2023-06-14T09:44:02;5.55;;;2.47;;
77544;SDS011;66672;50.328;7.610;2023-06-14T09:46:28;4.90;;;2.35;;
77544;SDS011;66672;50.328;7.610;2023-06-14T09:48:54;6.72;;;2.75;;
77544;SDS011;66672;50.328;7.610;2023-06-14T09:51:19;4.97;;;2.30;;
77544;SDS011;66672;50.328;7.610;2023-06-14T09:53:47;5.38;;;2.15;;
77544;SDS011;66672;50.328;7.610;2023-06-14T09:56:14;5.18;;;2.28;;
77544;SDS011;66672;50.328;7.610;2023-06-14T09:58:40;3.47;;;1.92;;
77544;SDS011;66672;50.328;7.610;2023-06-14T10:01:06;5.05;;;2.38;;
77544;SDS011;66672;50.328;7.610;2023-06-14T10:03:33;4.03;;;2.10;;
77544;SDS011;66672;50.328;7.610;2023-06-14T10:05:59;3.50;;;2.20;;
77544;SDS011;66672;50.328;7.610;2023-06-14T10:08:27;4.05;;;2.30;;
77544;SDS011;66672;50.328;7.610;2023-06-14T10:10:57;3.25;;;1.75;;
77544;SDS011;66672;50.328;7.610;2023-06-14T10:13:22;4.10;;;2.50;;
77544;SDS011;66672;50.328;7.610;2023-06-14T10:18:33;3.72;;;2.00;;
77544;SDS011;66672;50.328;7.610;2023-06-14T10:23:25;3.92;;;2.00;;
77544;SDS011;66672;50.328;7.610;2023-06-14T10:25:56;3.90;;;1.90;;
77544;SDS011;66672;50.328;7.610;2023-06-14T10:28:22;5.93;;;2.35;;
77544;SDS011;66672;50.328;7.610;2023-06-14T10:34:20;7.00;;;2.08;;
77544;SDS011;66672;50.328;7.610;2023-06-14T10:41:54;6.18;;;2.22;;
77544;SDS011;66672;50.328;7.610;2023-06-14T10:46:45;3.83;;;2.10;;
77544;SDS011;66672;50.328;7.610;2023-06-14T10:49:11;4.20;;;1.80;;
77544;SDS011;66672;50.328;7.610;2023-06-14T10:51:41;3.10;;;1.73;;
77544;SDS011;66672;50.328;7.610;2023-06-14T10:54:17;5.72;;;2.05;;
77544;SDS011;66672;50.328;7.610;2023-06-14T10:56:48;3.50;;;1.60;;
77544;SDS011;66672;50.328;7.610;2023-06-14T10:59:14;5.22;;;1.70;;
77544;SDS011;66672;50.328;7.610;2023-06-14T11:04:10;4.15;;;1.73;;
77544;SDS011;66672;50.328;7.610;2023-06-14T11:11:44;3.38;;;1.40;;
77544;SDS011;66672;50.328;7.610;2023-06-14T11:14:10;4.85;;;1.67;;
77544;SDS011;66672;50.328;7.610;2023-06-14T11:16:36;2.22;;;1.50;;
77544;SDS011;66672;50.328;7.610;2023-06-14T11:19:01;4.60;;;1.50;;
77544;SDS011;66672;50.328;7.610;2023-06-14T11:21:28;3.90;;;1.90;;
77544;SDS011;66672;50.328;7.610;2023-06-14T11:23:56;3.00;;;1.70;;
77544;SDS011;66672;50.328;7.610;2023-06-14T11:26:28;4.50;;;2.00;;
77544;SDS011;66672;50.328;7.610;2023-06-14T11:28:55;4.18;;;1.95;;
77544;SDS011;66672;50.328;7.610;2023-06-14T11:31:20;3.03;;;1.67;;
77544;SDS011;66672;50.328;7.610;2023-06-14T11:33:49;3.60;;;1.75;;
77544;SDS011;66672;50.328;7.610;2023-06-14T11:36:15;3.47;;;1.73;;
77544;SDS011;66672;50.328;7.610;2023-06-14T11:38:40;3.63;;;1.90;;
77544;SDS011;66672;50.328;7.610;2023-06-14T11:41:05;4.88;;;1.92;;
77544;SDS011;66672;50.328;7.610;2023-06-14T11:43:31;4.15;;;1.80;;
77544;SDS011;66672;50.328;7.610;2023-06-14T11:45:57;3.08;;;1.77;;
77544;SDS011;66672;50.328;7.610;2023-06-14T11:48:23;4.70;;;1.80;;
77544;SDS011;66672;50.328;7.610;2023-06-14T11:50:49;2.95;;;2.08;;
77544;SDS011;66672;50.328;7.610;2023-06-14T11:53:15;3.83;;;2.30;;
77544;SDS011;66672;50.328;7.610;2023-06-14T11:55:41;3.83;;;2.40;;
77544;SDS011;66672;50.328;7.610;2023-06-14T11:58:10;5.63;;;2.20;;
77544;SDS011;66672;50.328;7.610;2023-06-14T12:00:35;6.22;;;2.67;;
77544;SDS011;66672;50.328;7.610;2023-06-14T12:03:00;4.60;;;2.22;;
77544;SDS011;66672;50.328;7.610;2023-06-14T12:05:26;4.07;;;2.35;;
77544;SDS011;66672;50.328;7.610;2023-06-14T12:07:57;2.83;;;2.00;;
77544;SDS011;66672;50.328;7.610;2023-06-14T12:10:24;3.75;;;2.30;;
77544;SDS011;66672;50.328;7.610;2023-06-14T12:12:49;3.15;;;2.10;;
77544;SDS011;66672;50.328;7.610;2023-06-14T12:15:14;4.80;;;2.47;;
77544;SDS011;66672;50.328;7.610;2023-06-14T12:17:41;3.70;;;1.90;;
77544;SDS011;66672;50.328;7.610;2023-06-14T12:20:11;4.25;;;2.35;;
77544;SDS011;66672;50.328;7.610;2023-06-14T12:22:38;5.13;;;2.40;;
77544;SDS011;66672;50.328;7.610;2023-06-14T12:25:04;5.20;;;2.40;;
77544;SDS011;66672;50.328;7.610;2023-06-14T12:27:31;5.93;;;2.38;;
77544;SDS011;66672;50.328;7.610;2023-06-14T12:30:00;3.85;;;2.35;;
77544;SDS011;66672;50.328;7.610;2023-06-14T12:32:25;3.80;;;2.40;;
77544;SDS011;66672;50.328;7.610;2023-06-14T12:34:50;10.53;;;2.40;;
77544;SDS011;66672;50.328;7.610;2023-06-14T12:37:15;3.70;;;2.50;;
77544;SDS011;66672;50.328;7.610;2023-06-14T12:39:41;4.37;;;2.53;;
77544;SDS011;66672;50.328;7.610;2023-06-14T12:42:06;4.40;;;2.55;;
77544;SDS011;66672;50.328;7.610;2023-06-14T12:44:31;5.88;;;2.72;;
77544;SDS011;66672;50.328;7.610;2023-06-14T12:46:58;4.10;;;2.70;;
77544;SDS011;66672;50.328;7.610;2023-06-14T12:49:23;5.50;;;2.73;;
77544;SDS011;66672;50.328;7.610;2023-06-14T12:51:49;5.15;;;2.63;;
77544;SDS011;66672;50.328;7.610;2023-06-14T12:54:14;6.50;;;3.00;;
77544;SDS011;66672;50.328;7.610;2023-06-14T12:56:39;5.30;;;2.90;;
77544;SDS011;66672;50.328;7.610;2023-06-14T12:59:06;4.13;;;2.70;;
77544;SDS011;66672;50.328;7.610;2023-06-14T13:01:32;5.30;;;2.30;;
77544;SDS011;66672;50.328;7.610;2023-06-14T13:03:57;4.43;;;2.43;;
77544;SDS011;66672;50.328;7.610;2023-06-14T13:06:23;4.50;;;2.80;;
77544;SDS011;66672;50.328;7.610;2023-06-14T13:08:48;6.15;;;2.70;;
77544;SDS011;66672;50.328;7.610;2023-06-14T13:11:14;4.15;;;2.63;;
77544;SDS011;66672;50.328;7.610;2023-06-14T13:13:39;4.53;;;2.58;;
77544;SDS011;66672;50.328;7.610;2023-06-14T13:16:04;3.35;;;2.13;;
77544;SDS011;66672;50.328;7.610;2023-06-14T13:18:30;4.10;;;2.42;;
77544;SDS011;66672;50.328;7.610;2023-06-14T13:20:55;4.75;;;2.35;;
77544;SDS011;66672;50.328;7.610;2023-06-14T13:23:20;4.25;;;2.17;;
77544;SDS011;66672;50.328;7.610;2023-06-14T13:25:45;4.75;;;2.58;;
77544;SDS011;66672;50.328;7.610;2023-06-14T13:28:10;5.28;;;2.40;;
77544;SDS011;66672;50.328;7.610;2023-06-14T13:30:36;4.82;;;2.30;;
77544;SDS011;66672;50.328;7.610;2023-06-14T13:33:01;5.22;;;2.30;;
77544;SDS011;66672;50.328;7.610;2023-06-14T13:35:27;3.47;;;2.28;;
77544;SDS011;66672;50.328;7.610;2023-06-14T13:37:52;3.90;;;1.98;;
77544;SDS011;66672;50.328;7.610;2023-06-14T13:40:17;4.85;;;2.35;;
77544;SDS011;66672;50.328;7.610;2023-06-14T13:42:43;3.95;;;2.08;;
77544;SDS011;66672;50.328;7.610;2023-06-14T13:45:09;4.78;;;2.10;;
77544;SDS011;66672;50.328;7.610;2023-06-14T13:47:35;6.50;;;2.30;;
77544;SDS011;66672;50.328;7.610;2023-06-14T13:50:00;4.38;;;2.40;;
77544;SDS011;66672;50.328;7.610;2023-06-14T13:52:25;3.83;;;2.20;;
77544;SDS011;66672;50.328;7.610;2023-06-14T13:54:51;4.43;;;2.45;;
77544;SDS011;66672;50.328;7.610;2023-06-14T13:57:16;3.28;;;2.20;;
77544;SDS011;66672;50.328;7.610;2023-06-14T13:59:42;4.13;;;2.20;;
77544;SDS011;66672;50.328;7.610;2023-06-14T14:02:08;3.85;;;2.30;;
77544;SDS011;66672;50.328;7.610;2023-06-14T14:04:34;4.07;;;2.20;;
77544;SDS011;66672;50.328;7.610;2023-06-14T14:07:02;3.53;;;2.20;;
77544;SDS011;66672;50.328;7.610;2023-06-14T14:09:28;4.43;;;2.10;;
77544;SDS011;66672;50.328;7.610;2023-06-14T14:11:53;4.13;;;2.55;;
77544;SDS011;66672;50.328;7.610;2023-06-14T14:14:18;4.00;;;2.43;;
77544;SDS011;66672;50.328;7.610;2023-06-14T14:16:43;4.22;;;2.10;;
77544;SDS011;66672;50.328;7.610;2023-06-14T14:19:09;4.68;;;2.65;;
77544;SDS011;66672;50.328;7.610;2023-06-14T14:21:34;5.00;;;2.35;;
77544;SDS011;66672;50.328;7.610;2023-06-14T14:24:00;3.35;;;2.08;;
77544;SDS011;66672;50.328;7.610;2023-06-14T14:26:25;3.95;;;2.35;;
77544;SDS011;66672;50.328;7.610;2023-06-14T14:28:51;6.80;;;2.38;;
77544;SDS011;66672;50.328;7.610;2023-06-14T14:31:16;4.70;;;2.38;;
77544;SDS011;66672;50.328;7.610;2023-06-14T14:33:42;3.60;;;2.40;;
77544;SDS011;66672;50.328;7.610;2023-06-14T14:36:07;3.88;;;2.47;;
77544;SDS011;66672;50.328;7.610;2023-06-14T14:38:32;4.60;;;2.42;;
77544;SDS011;66672;50.328;7.610;2023-06-14T14:40:58;6.03;;;2.50;;
77544;SDS011;66672;50.328;7.610;2023-06-14T14:43:23;3.40;;;2.00;;
77544;SDS011;66672;50.328;7.610;2023-06-14T14:45:48;4.38;;;2.10;;
77544;SDS011;66672;50.328;7.610;2023-06-14T14:48:13;5.90;;;2.30;;
77544;SDS011;66672;50.328;7.610;2023-06-14T14:50:39;3.53;;;2.05;;
77544;SDS011;66672;50.328;7.610;2023-06-14T14:53:05;3.60;;;2.30;;
77544;SDS011;66672;50.328;7.610;2023-06-14T14:55:30;5.28;;;2.45;;
77544;SDS011;66672;50.328;7.610;2023-06-14T14:57:57;4.05;;;2.33;;
77544;SDS011;66672;50.328;7.610;2023-06-14T15:00:22;3.63;;;2.40;;
77544;SDS011;66672;50.328;7.610;2023-06-14T15:02:47;5.07;;;2.15;;
77544;SDS011;66672;50.328;7.610;2023-06-14T15:05:12;3.40;;;2.23;;
77544;SDS011;66672;50.328;7.610;2023-06-14T15:07:38;5.13;;;2.28;;
77544;SDS011;66672;50.328;7.610;2023-06-14T15:10:05;4.28;;;2.45;;